Share

Siemreap, Cambodia

4:32 PM ICT on April 25, 2014 (GMT +0700)
Siem Reap (VDSR) Elev 49 ft | 13.37 °N, 103.85 °E | Change Station

Current weather conditions updated 32 minutes ago

Partly Cloudy
Partly Cloudy
99 °F
Feels Like 101 °F
N
7
Wind Variable Wind from South
Sunrise 5:46 AM
Sunset 6:18 PM
Moon Waning Crescent

Tomorrow is forecast to be nearly the same temperature as today.

Pressure 29.65 in
Visibility 6.2 miles
Clouds Few 1700 ft
Heat Index 101 °F
Dew Point 64 °F
Humidity 32%
Rainfall 0.00 in
Snow Depth Not available.
UV 5 out of 16
Pollen Not available.
Air Quality Not available.
Flu Activity Not available.
METAR VDSR 250900Z 18006KT 9999 FEW017 37/18 Q1004

More Conditions Fewer Conditions

Pressure 29.65 in
Visibility 6.2 miles
Clouds Few 1700 ft
Heat Index 101 °F
Dew Point 64 °F
Humidity 32%
Rainfall 0.00 in
Snow Depth Not available.
UV 5 out of 16
Pollen Not available.
Air Quality Not available.
Flu Activity Not available.
METAR VDSR 250900Z 18006KT 9999 FEW017 37/18 Q1004

More Conditions Fewer Conditions

10-Day Weather Forecast

Almanac

Astronomy

Apr. 25, 2014 Rise Set
Actual Time 5:46 AM ICT 6:18 PM ICT
Civil Twilight 5:24 AM ICT 6:40 PM ICT
Nautical Twilight 4:58 AM ICT 7:06 PM ICT
Astronomical Twilight 4:33 AM ICT 7:32 PM ICT
Moon 2:29 AM ICT 2:46 PM ICT
Length of Visible Light 13h 16m
Length of Day
12h 32m
Tomorrow will be 0m 40s longer.
Waning Crescent, 18% of the Moon is Illuminated
Today
Waning Crescent
Apr 29
New
May 6
First Quarter
May 14
Full
May 21
Last Quarter

Yesterday's Extremes

Country Highs Country Lows

Community

  • Storm Clouds & Sunset
    Storm Clouds & Sunset
  • Deer in evening light
    Deer in evening light
  • Critter
    Critter
  • Jone Runs Falls
    Jone Runs Falls
  • Easter in Shenandoah National Park
    Easter in Shenandoah National Park

WunderPhotos

Upload Photos

1,704,876 photos uploaded!

WunderBlogs® & News

Nearby

Snow Depth

Not available.

Coastal Water Temperatures

Place Temperature
No Stations Reporting

Earthquake Activity

City Distance Mag. Time & Date
No recent earthquake activity has been reported nearby.
Minimum magnitude displayed is 2.5.

Nearby Weather Stations

There are no personal weather stations in this area.

What do you think?

We're not finished. Please let us know what you like, what you don't like, and what you are still missing.